Time;durP1;ratioP1;P1;durP2;ratioP2;P2;SDS_P1;SDS_P2;PMS_P1;PMS_P2;Temp;Humidity;BMP_temperature;BMP_pressure;BME280_temperature;BME280_humidity;BME280_pressure;Samples;Min_cycle;Max_cycle;Signal;HPM_P1;HPM_P2
2023/02/13 00:00:44;;;;;;;1.83;1.73;;;1.40;99.90;-0.40;98761.00;;;;5072096;28;20837;-68
2023/02/13 00:03:34;;;;;;;1.33;1.23;;;0.70;99.90;-0.70;98752.00;;;;5067497;28;20462;-68
2023/02/13 00:06:24;;;;;;;2.00;1.77;;;1.10;99.90;-0.90;98744.00;;;;5070059;28;20787;-68
2023/02/13 00:09:13;;;;;;;2.87;2.33;;;1.10;99.90;-1.10;98744.00;;;;5068727;28;20423;-71
2023/02/13 00:12:02;;;;;;;2.07;1.83;;;-1.40;99.90;-1.00;98744.00;;;;5071055;28;20910;-67
2023/02/13 00:14:50;;;;;;;1.67;1.50;;;0.60;99.90;-0.80;98744.00;;;;5071226;28;20427;-70
2023/02/13 00:17:39;;;;;;;1.67;1.57;;;-1.50;99.90;-0.80;98739.00;;;;5070440;28;20771;-70
2023/02/13 00:20:28;;;;;;;2.10;1.70;;;-1.00;99.90;-0.80;98747.00;;;;5059088;28;20484;-69
2023/02/13 00:23:18;;;;;;;1.30;1.30;;;0.90;99.90;-1.00;98736.00;;;;5070841;28;20446;-73
2023/02/13 00:26:10;;;;;;;3.47;2.33;;;0.40;99.90;-0.80;98739.00;;;;5069909;28;20426;-70
2023/02/13 00:28:58;;;;;;;1.80;1.57;;;-1.50;99.90;-0.80;98743.00;;;;5070295;28;20449;-70
2023/02/13 00:31:47;;;;;;;2.37;1.47;;;-1.50;99.90;-0.80;98737.00;;;;5063124;28;21016;-69
2023/02/13 00:34:36;;;;;;;2.70;2.47;;;-1.50;99.90;-0.50;98738.00;;;;5068064;28;20443;-70
2023/02/13 00:37:26;;;;;;;2.33;2.00;;;1.40;99.90;-0.70;98737.00;;;;5069727;28;20434;-70
2023/02/13 00:40:16;;;;;;;1.90;1.80;;;-1.40;99.90;-0.80;98738.00;;;;5068609;28;20422;-71
2023/02/13 00:43:05;;;;;;;2.90;2.70;;;-1.50;99.90;-1.50;98726.00;;;;5069259;28;20446;-68
2023/02/13 00:45:53;;;;;;;4.07;2.43;;;-1.60;99.90;-1.20;98744.00;;;;5071335;28;20907;-71
2023/02/13 00:48:43;;;;;;;3.07;2.47;;;-1.60;99.90;-1.10;98745.00;;;;5069598;28;20438;-71
2023/02/13 00:51:32;;;;;;;2.23;2.07;;;-1.70;99.90;-1.00;98748.00;;;;5066215;28;20426;-71
2023/02/13 00:54:21;;;;;;;3.30;2.77;;;1.00;99.90;-1.00;98749.00;;;;5069822;28;20465;-70
2023/02/13 00:57:11;;;;;;;2.33;2.23;;;-1.70;99.90;-0.70;98749.00;;;;5066189;28;20423;-70
2023/02/13 01:00:00;;;;;;;2.30;2.20;;;-1.70;99.90;-0.60;98750.00;;;;5070457;28;20842;-70
2023/02/13 01:02:48;;;;;;;3.67;2.30;;;0.90;99.90;-0.80;98748.00;;;;5069293;28;20467;-70
2023/02/13 01:05:37;;;;;;;3.10;2.43;;;-1.60;99.90;-1.30;98747.00;;;;5064260;28;20430;-68
2023/02/13 01:08:27;;;;;;;2.63;1.90;;;0.90;99.90;-1.40;98742.00;;;;5068805;28;20488;-68
2023/02/13 01:11:17;;;;;;;2.57;1.77;;;0.20;99.90;-1.20;98743.00;;;;5069588;28;20427;-71
2023/02/13 01:14:07;;;;;;;3.53;2.37;;;-1.80;99.90;-1.00;98740.00;;;;5068748;28;20454;-70
2023/02/13 01:16:56;;;;;;;5.33;2.80;;;-1.70;99.90;-0.70;98739.00;;;;5067250;28;20807;-69
2023/02/13 01:19:45;;;;;;;1.47;1.37;;;-1.70;99.90;-0.70;98733.00;;;;5068900;28;20917;-69
2023/02/13 01:22:34;;;;;;;2.23;2.03;;;-1.60;99.90;-0.60;98739.00;;;;5069244;28;20923;-70
2023/02/13 01:25:23;;;;;;;2.53;2.03;;;-1.60;99.90;-0.60;98747.00;;;;5070095;28;20411;-70
2023/02/13 01:28:12;;;;;;;2.73;2.07;;;-1.60;99.90;-0.60;98734.00;;;;5067604;28;20443;-69
2023/02/13 01:31:02;;;;;;;4.77;2.63;;;0.90;99.90;-0.80;98733.00;;;;5065509;28;20422;-69
2023/02/13 01:33:52;;;;;;;3.43;2.07;;;-1.50;99.90;-0.90;98742.00;;;;5063343;28;21042;-70
2023/02/13 01:36:40;;;;;;;2.70;1.97;;;-1.60;99.90;-1.00;98726.00;;;;5056306;28;20446;-70
2023/02/13 01:39:29;;;;;;;2.60;2.40;;;1.10;99.90;-1.30;98716.00;;;;5068705;28;21104;-70
2023/02/13 01:42:25;;;;;;;2.43;1.43;;;-1.70;99.90;-1.30;98717.00;;;;5068638;28;20476;-70
2023/02/13 01:45:24;;;;;;;3.93;2.27;;;-1.60;99.90;-1.40;98730.00;;;;5060652;28;20423;-70
2023/02/13 01:48:18;;;;;;;4.27;2.70;;;-1.90;99.90;-1.60;98725.00;;;;5069038;28;20429;-69
2023/02/13 01:51:12;;;;;;;2.20;2.10;;;-2.00;99.90;-1.20;98726.00;;;;5065767;28;20524;-69
2023/02/13 01:54:06;;;;;;;2.77;2.50;;;0.70;99.90;-1.30;98733.00;;;;5065639;28;20854;-69
2023/02/13 01:56:58;;;;;;;3.07;2.00;;;-2.00;99.90;-1.40;98731.00;;;;5069319;28;20426;-69
2023/02/13 01:59:53;;;;;;;2.50;2.30;;;-2.10;99.90;-1.40;98731.00;;;;5069116;28;20430;-69
2023/02/13 02:02:48;;;;;;;3.20;2.70;;;-2.10;99.90;-1.10;98728.00;;;;5069533;28;20454;-68
2023/02/13 02:05:39;;;;;;;2.93;2.63;;;0.30;99.90;-1.20;98723.00;;;;5069020;28;20422;-69
2023/02/13 02:08:29;;;;;;;3.07;2.50;;;-1.70;99.90;-1.40;98725.00;;;;5067741;28;20794;-69
2023/02/13 02:11:26;;;;;;;3.07;2.50;;;-2.10;99.90;-1.60;98721.00;;;;5067557;28;20624;-69
2023/02/13 02:14:15;;;;;;;3.42;2.80;;;-1.50;99.90;-1.80;98720.00;;;;5065493;28;20783;-69
2023/02/13 02:17:04;;;;;;;4.70;2.30;;;-2.10;99.90;-1.90;98721.00;;;;5068660;28;20685;-73
2023/02/13 02:20:07;;;;;;;2.40;2.20;;;-2.20;99.90;-2.00;98719.00;;;;5068306;28;20949;-71
2023/02/13 02:23:23;;;;;;;2.37;2.27;;;-4.20;99.90;-1.30;98731.00;;;;5068023;28;20442;-70
2023/02/13 02:26:57;;;;;;;2.00;1.80;;;-1.90;99.90;-1.00;98730.00;;;;5068797;28;20480;-70
2023/02/13 02:30:37;;;;;;;4.37;2.03;;;-1.60;99.90;-0.90;98733.00;;;;5051692;28;20823;-70
2023/02/13 02:33:42;;;;;;;2.07;1.83;;;0.30;99.90;-1.00;98731.00;;;;5066427;28;20481;-70
2023/02/13 02:36:48;;;;;;;2.63;1.87;;;-1.50;99.90;-1.20;98728.00;;;;5061394;28;20415;-70
2023/02/13 02:39:48;;;;;;;1.77;1.67;;;-1.90;99.90;-1.50;98726.00;;;;5067642;28;20987;-70
2023/02/13 02:42:48;;;;;;;1.50;1.40;;;-2.00;99.90;-1.80;98734.00;;;;5068670;28;20442;-71
2023/02/13 02:45:46;;;;;;;6.13;2.30;;;-2.20;99.90;-1.50;98728.00;;;;5067965;28;20814;-70
2023/02/13 02:52:05;;;;;;;5.87;2.00;;;-2.20;99.90;-1.30;98723.00;;;;5067096;28;20423;-71
2023/02/13 02:55:11;;;;;;;2.23;2.13;;;-2.10;99.90;-1.20;98721.00;;;;5070470;28;20430;-70
2023/02/13 03:07:37;;;;;;;7.10;2.17;;;-2.10;99.90;-1.70;98728.00;;;;5071977;28;20423;-70
2023/02/13 03:13:50;;;;;;;3.33;2.73;;;-2.20;99.90;-1.20;98717.00;;;;5006950;28;20464;-73
2023/02/13 03:23:36;;;;;;;2.50;2.03;;;-2.10;99.90;-1.30;98715.00;;;;5008965;28;20449;-73
2023/02/13 03:26:49;;;;;;;1.70;1.60;;;-2.10;99.90;-1.70;98707.00;;;;5071873;28;20418;-72
2023/02/13 03:33:07;;;;;;;2.10;1.87;;;-1.90;99.90;-2.20;98705.00;;;;5071654;28;20481;-71
2023/02/13 03:39:23;;;;;;;1.67;1.57;;;-2.40;99.90;-1.80;98704.00;;;;5070980;28;20427;-71
2023/02/13 03:42:21;;;;;;;6.50;2.87;;;-2.50;99.90;-1.80;98700.00;;;;5071010;28;20441;-71
2023/02/13 03:51:40;;;;;;;2.77;2.50;;;-2.40;99.90;-1.40;98700.00;;;;5069419;28;20430;-71
2023/02/13 04:00:52;;;;;;;3.63;1.93;;;-2.40;99.90;-1.60;98699.00;;;;5071333;28;20794;-71
2023/02/13 04:03:49;;;;;;;3.10;2.60;;;0.10;99.90;-1.50;98691.00;;;;5067195;28;20457;-71
2023/02/13 04:06:48;;;;;;;2.63;2.43;;;-2.40;99.90;-1.80;98698.00;;;;5070064;28;20856;-71
2023/02/13 04:09:40;;;;;;;2.50;1.73;;;-2.40;99.90;-1.80;98689.00;;;;5062718;28;20441;-71
2023/02/13 04:12:39;;;;;;;3.00;2.10;;;-2.50;99.90;-2.00;98696.00;;;;5069096;28;20536;-72
2023/02/13 04:15:33;;;;;;;2.10;2.00;;;-2.50;99.90;-1.80;98703.00;;;;5069869;28;20438;-72
2023/02/13 04:18:27;;;;;;;2.67;2.47;;;-2.60;99.90;-1.70;98693.00;;;;5070633;28;20430;-71
2023/02/13 04:21:16;;;;;;;2.33;2.17;;;-2.10;99.90;-1.80;98698.00;;;;5071155;28;20764;-72
2023/02/13 04:24:07;;;;;;;2.23;2.03;;;-2.60;99.90;-1.80;98699.00;;;;5069816;28;20454;-71
2023/02/13 04:26:57;;;;;;;2.70;2.50;;;-2.60;99.90;-1.70;98696.00;;;;5057575;28;20430;-71
2023/02/13 04:29:45;;;;;;;2.67;2.03;;;-2.00;99.90;-1.70;98681.00;;;;5068868;28;20472;-71
2023/02/13 04:32:34;;;;;;;4.83;2.50;;;-2.50;99.90;-1.80;98691.00;;;;5070789;28;20453;-71
2023/02/13 04:35:23;;;;;;;7.43;2.73;;;-2.60;99.90;-2.10;98678.00;;;;5066892;28;20428;-70
2023/02/13 04:38:12;;;;;;;1.90;1.80;;;-2.60;99.90;-2.10;98686.00;;;;5070521;28;20423;-71
2023/02/13 04:41:02;;;;;;;1.87;1.70;;;-2.70;99.90;-2.30;98672.00;;;;5069186;28;20443;-71
2023/02/13 04:43:51;;;;;;;2.30;2.10;;;-2.70;99.90;-2.50;98677.00;;;;5070915;28;20831;-71
2023/02/13 04:46:40;;;;;;;4.73;2.40;;;-2.80;99.90;-2.30;98681.00;;;;5070692;28;20431;-70
2023/02/13 04:49:29;;;;;;;2.60;2.40;;;-2.80;99.90;-2.00;98681.00;;;;5070500;28;20960;-70
2023/02/13 04:52:18;;;;;;;2.10;2.00;;;-2.80;99.90;-1.90;98685.00;;;;5069230;28;20500;-70
2023/02/13 04:55:07;;;;;;;2.27;1.97;;;-2.80;99.90;-2.20;98677.00;;;;5070043;28;20498;-70
2023/02/13 04:57:57;;;;;;;9.47;2.77;;;-2.80;99.90;-2.00;98690.00;;;;5068671;28;20491;-70
2023/02/13 05:00:46;;;;;;;3.13;2.70;;;-3.90;99.90;-2.10;98692.00;;;;5071190;28;20419;-70
2023/02/13 05:03:35;;;;;;;2.57;2.20;;;-2.80;99.90;-2.10;98686.00;;;;5070035;28;20450;-70
2023/02/13 05:06:24;;;;;;;2.53;2.30;;;-2.80;99.90;-2.20;98689.00;;;;5070182;28;20415;-70
2023/02/13 05:09:13;;;;;;;1.80;1.70;;;-2.80;99.90;-2.40;98679.00;;;;5058522;28;20431;-71
2023/02/13 05:12:01;;;;;;;1.83;1.73;;;-3.00;99.90;-2.60;98669.00;;;;5070068;28;20434;-72
2023/02/13 05:14:52;;;;;;;1.70;1.60;;;-2.90;99.90;-2.50;98671.00;;;;5067929;28;20508;-71
2023/02/13 05:17:43;;;;;;;2.10;2.00;;;-3.00;99.90;-2.50;98682.00;;;;5068302;28;20453;-71
2023/02/13 05:20:32;;;;;;;1.30;1.30;;;-0.40;99.90;-2.60;98675.00;;;;5073995;28;20439;-72
2023/02/13 05:23:22;;;;;;;2.17;2.07;;;-3.00;99.90;-2.90;98675.00;;;;5069118;28;20435;-71
2023/02/13 05:26:11;;;;;;;2.57;2.40;;;-3.10;99.90;-2.80;98668.00;;;;5069776;28;20953;-69
2023/02/13 05:32:07;;;;;;;2.27;2.03;;;-3.30;99.90;-3.00;98670.00;;;;5067729;28;20517;-69
2023/02/13 05:34:56;;;;;;;1.17;1.17;;;-3.30;99.90;-3.30;98660.00;;;;5069802;28;21003;-74
2023/02/13 05:37:45;;;;;;;2.23;2.03;;;-3.40;99.90;-3.00;98671.00;;;;5065722;28;20433;-70
2023/02/13 05:40:34;;;;;;;2.23;1.93;;;-3.40;99.90;-2.80;98669.00;;;;5068025;28;20431;-68
2023/02/13 05:43:23;;;;;;;2.47;2.23;;;-3.20;99.90;-2.50;98665.00;;;;5064288;28;20486;-71
2023/02/13 05:46:11;;;;;;;3.97;2.30;;;-3.20;99.90;-2.20;98666.00;;;;5067682;28;20454;-72
2023/02/13 05:49:02;;;;;;;2.77;2.57;;;;;-2.20;98682.00;;;;5064163;28;20464;-71
2023/02/13 05:51:52;;;;;;;4.73;3.60;;;-3.00;99.90;-2.50;98678.00;;;;5067548;28;20553;-73
2023/02/13 05:54:41;;;;;;;3.17;2.90;;;-3.00;99.90;-2.90;98666.00;;;;5067463;28;20462;-70
2023/02/13 05:57:30;;;;;;;2.37;2.13;;;-3.10;99.90;-3.00;98667.00;;;;5070242;28;20415;-71
2023/02/13 06:00:21;;;;;;;7.00;2.63;;;-3.20;99.90;-2.80;98672.00;;;;5069189;28;20422;-72
2023/02/13 06:03:10;;;;;;;2.23;1.90;;;-3.30;99.90;-2.70;98682.00;;;;5068443;28;20997;-70
2023/02/13 06:06:00;;;;;;;2.17;1.97;;;-3.20;99.90;-2.70;98679.00;;;;5068093;28;20504;-72
2023/02/13 06:08:49;;;;;;;2.50;1.97;;;-3.20;99.90;-2.40;98678.00;;;;5068424;28;20441;-71
2023/02/13 06:11:38;;;;;;;2.93;2.43;;;-3.10;99.90;-2.30;98684.00;;;;5067208;28;20482;-71
2023/02/13 06:14:27;;;;;;;2.40;2.23;;;-3.00;99.90;-2.10;98691.00;;;;5068324;28;20459;-72
2023/02/13 06:17:15;;;;;;;3.10;2.33;;;-3.00;99.90;-2.00;98696.00;;;;5068460;28;20488;-70
2023/02/13 06:20:06;;;;;;;4.03;3.37;;;-2.80;99.90;-1.70;98696.00;;;;5069028;28;20422;-70
2023/02/13 06:22:56;;;;;;;3.43;2.93;;;-2.70;99.90;-1.70;98697.00;;;;5068035;28;20508;-70
2023/02/13 06:25:45;;;;;;;3.67;2.70;;;-2.60;99.90;-2.00;98695.00;;;;5067115;28;20450;-72
2023/02/13 06:28:34;;;;;;;3.53;2.30;;;-2.60;99.90;-2.20;98689.00;;;;5070337;28;20443;-73
2023/02/13 06:31:23;;;;;;;6.90;5.93;;;-2.70;99.90;-2.20;98695.00;;;;5072280;28;20430;-70
2023/02/13 06:34:12;;;;;;;13.13;11.13;;;-2.70;99.90;-2.10;98698.00;;;;5068643;28;20853;-71
2023/02/13 06:37:01;;;;;;;3.60;3.30;;;-1.30;99.90;-2.20;98697.00;;;;5066468;28;20438;-71
2023/02/13 06:39:51;;;;;;;3.37;3.07;;;-2.80;99.90;-2.00;98699.00;;;;5067947;28;20964;-71
2023/02/13 06:42:41;;;;;;;26.27;15.27;;;-2.70;99.90;-1.80;98711.00;;;;5065719;28;20461;-71
2023/02/13 06:45:29;;;;;;;17.00;11.13;;;-2.70;99.90;-2.10;98699.00;;;;5068432;28;20433;-71
2023/02/13 06:48:18;;;;;;;6.40;5.67;;;-2.70;99.90;-2.00;98705.00;;;;5061979;28;21000;-72
2023/02/13 06:51:07;;;;;;;4.60;3.13;;;-2.70;99.90;-2.00;98709.00;;;;5066102;28;20455;-72
2023/02/13 06:53:56;;;;;;;4.37;2.67;;;-2.70;99.90;-2.00;98710.00;;;;5067034;28;20447;-71
2023/02/13 06:56:46;;;;;;;2.33;1.93;;;-2.60;99.90;-2.10;98703.00;;;;5066574;28;20430;-72
2023/02/13 06:59:35;;;;;;;5.00;3.20;;;-2.60;99.90;-2.30;98700.00;;;;5067003;28;20484;-70
2023/02/13 07:02:23;;;;;;;3.47;3.00;;;-2.70;99.90;-2.30;98708.00;;;;5067716;28;20828;-75
2023/02/13 07:05:13;;;;;;;3.07;2.87;;;-2.60;99.90;-2.60;98700.00;;;;5065265;28;20426;-74
2023/02/13 07:08:01;;;;;;;3.57;3.23;;;-2.40;99.90;-2.30;98696.00;;;;5068337;28;20434;-71
2023/02/13 07:10:50;;;;;;;3.03;2.83;;;-2.70;99.90;-2.20;98702.00;;;;5068588;28;20426;-69
2023/02/13 07:13:43;;;;;;;6.47;3.50;;;-2.70;99.90;-1.90;98699.00;;;;5067819;28;20455;-73
2023/02/13 07:16:32;;;;;;;6.03;3.97;;;-2.40;99.90;-1.80;98712.00;;;;5068279;28;20466;-73
2023/02/13 07:19:21;;;;;;;5.77;3.80;;;-1.90;99.90;-1.60;98707.00;;;;5066219;28;20430;-74
2023/02/13 07:22:10;;;;;;;10.43;5.77;;;-2.30;99.90;-1.50;98695.00;;;;5064229;28;20806;-72
2023/02/13 07:24:59;;;;;;;11.60;8.70;;;0.00;99.90;-1.70;98702.00;;;;5069301;28;20467;-72
2023/02/13 07:27:48;;;;;;;34.90;18.40;;;-2.30;99.90;-1.30;98698.00;;;;5068202;28;20415;-70
2023/02/13 07:30:38;;;;;;;17.57;8.73;;;0.10;99.90;-1.60;98701.00;;;;5065747;28;20435;-70
2023/02/13 07:33:27;;;;;;;24.60;12.37;;;-1.90;99.90;-1.90;98691.00;;;;5066765;28;20446;-73
2023/02/13 07:36:16;;;;;;;14.30;8.30;;;-1.60;99.90;-1.70;98690.00;;;;5066335;28;20863;-74
2023/02/13 07:39:05;;;;;;;4.90;4.17;;;-2.30;99.90;-1.60;98687.00;;;;5064098;28;20430;-74
2023/02/13 07:41:53;;;;;;;3.77;3.40;;;-2.20;99.90;-1.50;98691.00;;;;5069201;28;20434;-74
2023/02/13 07:44:42;;;;;;;5.00;3.70;;;-1.50;99.90;-1.50;98687.00;;;;5070393;28;20426;-70
2023/02/13 07:47:34;;;;;;;3.37;2.67;;;-2.10;99.90;-1.10;98685.00;;;;5071370;28;20422;-74
2023/02/13 07:50:22;;;;;;;6.70;3.50;;;-0.50;99.90;-0.90;98693.00;;;;5069723;28;20422;-73
2023/02/13 07:53:11;;;;;;;20.10;8.07;;;-1.80;99.90;-0.70;98689.00;;;;5069056;28;21012;-73
2023/02/13 07:56:00;;;;;;;4.97;3.57;;;-1.70;99.90;-1.30;98677.00;;;;5071401;28;20531;-75
2023/02/13 07:58:49;;;;;;;2.67;2.33;;;-1.60;99.90;-0.90;98679.00;;;;5070445;28;20454;-71
2023/02/13 08:01:37;;;;;;;3.40;2.90;;;0.40;99.90;-0.80;98680.00;;;;5072565;28;20430;-71
2023/02/13 08:04:28;;;;;;;3.37;3.13;;;-1.50;99.90;-0.50;98689.00;;;;5071560;28;20438;-71
2023/02/13 08:07:17;;;;;;;4.10;3.33;;;1.00;99.90;-0.60;98677.00;;;;5072226;28;20426;-69
2023/02/13 08:13:16;;;;;;;11.63;4.87;;;-1.20;99.90;0.00;98684.00;;;;5070756;28;20457;-70
2023/02/13 08:16:05;;;;;;;5.10;4.37;;;-1.00;99.90;0.40;98674.00;;;;5071399;28;21071;-70
2023/02/13 08:18:54;;;;;;;9.03;4.33;;;-0.80;99.90;0.30;98675.00;;;;5058551;28;20427;-75
2023/02/13 08:21:44;;;;;;;7.27;4.77;;;-0.60;99.90;0.50;98673.00;;;;5070844;28;20979;-71
2023/02/13 08:24:33;;;;;;;6.90;4.83;;;0.50;99.90;0.70;98678.00;;;;5071527;28;20419;-70
2023/02/13 08:27:23;;;;;;;5.03;3.83;;;-0.30;99.90;0.80;98673.00;;;;5061332;28;20473;-72
2023/02/13 08:30:14;;;;;;;16.50;7.93;;;1.20;99.90;1.40;98676.00;;;;5070712;28;20410;-72
2023/02/13 08:33:03;;;;;;;12.07;6.60;;;0.10;99.90;1.70;98680.00;;;;5065562;28;20438;-73
2023/02/13 08:35:51;;;;;;;7.50;5.63;;;2.00;99.90;2.20;98674.00;;;;5073202;28;20455;-72
2023/02/13 08:38:41;;;;;;;5.73;5.00;;;0.60;99.90;2.50;98678.00;;;;5070216;28;20530;-73
2023/02/13 08:41:30;;;;;;;3.17;2.87;;;2.30;99.90;2.00;98664.00;;;;5069894;28;20427;-75
2023/02/13 08:44:19;;;;;;;7.03;5.30;;;1.10;99.90;2.20;98670.00;;;;5069884;28;20442;-70
2023/02/13 08:47:08;;;;;;;7.17;6.10;;;1.30;99.90;2.30;98662.00;;;;5068618;28;20442;-75
2023/02/13 08:49:56;;;;;;;6.27;3.73;;;1.50;99.90;2.50;98670.00;;;;5066506;28;20435;-75
2023/02/13 08:52:45;;;;;;;6.07;5.23;;;2.50;99.90;2.20;98655.00;;;;5069724;28;20430;-68
2023/02/13 08:55:35;;;;;;;8.00;5.13;;;1.60;99.90;2.60;98659.00;;;;5069951;28;20474;-69
2023/02/13 08:58:24;;;;;;;4.77;4.23;;;1.70;99.90;2.90;98664.00;;;;5060221;28;20422;-73
2023/02/13 09:01:13;;;;;;;7.87;5.33;;;1.80;99.90;3.20;98671.00;;;;5070028;28;20427;-70
2023/02/13 09:04:02;;;;;;;6.17;4.67;;;2.50;99.90;3.50;98666.00;;;;5070472;28;20535;-71
2023/02/13 09:06:51;;;;;;;4.00;3.40;;;2.20;99.90;3.60;98669.00;;;;5069563;28;20423;-74
2023/02/13 09:09:40;;;;;;;5.77;3.97;;;2.40;99.90;4.30;98687.00;;;;5069844;28;20434;-70
2023/02/13 09:12:30;;;;;;;8.37;5.40;;;2.70;99.90;4.80;98681.00;;;;5067719;28;20459;-71
2023/02/13 09:15:18;;;;;;;9.43;4.93;;;3.00;99.90;5.40;98675.00;;;;5067325;28;20429;-70
2023/02/13 09:18:07;;;;;;;4.77;4.03;;;3.40;99.90;5.70;98685.00;;;;5077816;28;20430;-71
2023/02/13 09:21:01;;;;;;;5.53;4.43;;;5.10;99.90;5.90;98692.00;;;;5064215;28;20407;-68
2023/02/13 09:23:51;;;;;;;4.50;3.97;;;5.90;99.90;6.20;98683.00;;;;5058484;28;20446;-68
2023/02/13 09:26:40;;;;;;;9.07;4.90;;;4.30;99.90;6.40;98678.00;;;;5069550;28;20199;-68
2023/02/13 09:29:32;;;;;;;4.90;3.93;;;5.20;99.90;6.60;98686.00;;;;5066292;28;20196;-68
2023/02/13 09:32:21;;;;;;;9.10;5.20;;;4.80;99.90;6.80;98685.00;;;;5068775;28;20695;-70
2023/02/13 09:35:10;;;;;;;3.50;3.20;;;5.00;99.90;5.90;98670.00;;;;5062251;28;20196;-69
2023/02/13 09:38:01;;;;;;;6.30;3.80;;;5.00;99.90;6.10;98680.00;;;;5067797;28;20899;-68
2023/02/13 09:40:55;;;;;;;5.67;3.50;;;5.00;99.90;6.20;98682.00;;;;5068318;28;20651;-70
2023/02/13 09:43:49;;;;;;;6.83;4.73;;;5.00;99.90;7.00;98693.00;;;;5068663;28;20223;-72
2023/02/13 09:46:42;;;;;;;6.40;4.13;;;5.20;99.90;7.50;98695.00;;;;5069802;28;20211;-71
2023/02/13 09:49:37;;;;;;;5.03;4.30;;;5.50;99.90;7.70;98705.00;;;;5068698;28;20591;-67
2023/02/13 09:52:29;;;;;;;4.30;3.20;;;5.70;99.90;8.00;98704.00;;;;5069246;28;20220;-68
2023/02/13 09:55:21;;;;;;;6.90;3.83;;;6.00;99.90;8.20;98707.00;;;;5069088;28;20682;-68
2023/02/13 09:58:20;;;;;;;5.07;3.73;;;6.30;99.90;8.50;98697.00;;;;5068744;28;20581;-67
2023/02/13 10:01:24;;;;;;;3.90;3.00;;;6.70;99.90;8.70;98710.00;;;;5068590;28;20265;-66
2023/02/13 10:04:31;;;;;;;5.13;3.90;;;6.70;99.90;8.60;98703.00;;;;5062136;28;20234;-74
2023/02/13 10:07:30;;;;;;;7.20;4.33;;;6.90;99.90;8.80;98700.00;;;;5068768;28;20199;-75
2023/02/13 10:10:28;;;;;;;6.03;4.00;;;7.10;99.90;9.20;98695.00;;;;5069389;28;20204;-70
2023/02/13 10:13:36;;;;;;;4.93;3.93;;;7.30;99.90;9.50;98702.00;;;;5068959;28;20715;-70
2023/02/13 10:16:30;;;;;;;3.17;2.73;;;7.50;99.90;9.60;98699.00;;;;5068504;28;20223;-68
2023/02/13 10:19:35;;;;;;;8.43;3.47;;;7.70;99.90;9.50;98703.00;;;;5068115;28;20686;-68
2023/02/13 10:22:30;;;;;;;3.90;3.20;;;7.80;99.90;9.90;98709.00;;;;5069165;28;20224;-68
2023/02/13 10:25:24;;;;;;;3.80;3.47;;;8.10;99.90;10.10;98703.00;;;;5068595;28;20200;-73
2023/02/13 10:28:17;;;;;;;6.23;3.43;;;8.20;99.90;10.30;98697.00;;;;5067349;28;20226;-71
2023/02/13 10:31:11;;;;;;;5.17;3.53;;;8.30;99.90;10.20;98691.00;;;;5069062;28;20206;-69
2023/02/13 10:34:06;;;;;;;4.83;3.60;;;8.50;99.90;10.80;98687.00;;;;5069640;28;20253;-69
2023/02/13 10:36:56;;;;;;;5.07;2.70;;;8.70;99.90;11.00;98694.00;;;;5058286;28;20228;-69
2023/02/13 10:39:47;;;;;;;9.10;5.20;;;9.00;99.90;11.10;98686.00;;;;5066817;28;20215;-71
2023/02/13 10:42:45;;;;;;;4.53;3.10;;;9.10;99.90;11.40;98688.00;;;;5067478;28;20220;-70
2023/02/13 10:46:03;;;;;;;3.13;2.83;;;9.30;99.90;12.00;98686.00;;;;5067624;28;20200;-70
2023/02/13 10:49:10;;;;;;;2.93;2.57;;;9.80;99.90;12.70;98691.00;;;;5061803;28;20385;-70
2023/02/13 10:52:14;;;;;;;2.77;2.40;;;11.80;98.30;12.80;98690.00;;;;5063780;28;20203;-69
2023/02/13 10:55:19;;;;;;;8.20;2.73;;;11.60;95.90;13.00;98687.00;;;;5059856;28;20200;-70
2023/02/13 10:58:16;;;;;;;6.50;2.77;;;12.00;93.70;13.40;98670.00;;;;5067049;28;20261;-69
2023/02/13 11:01:10;;;;;;;4.27;2.90;;;12.40;92.80;13.70;98679.00;;;;5068654;28;20210;-69
2023/02/13 11:04:07;;;;;;;3.43;2.57;;;12.60;91.40;13.70;98678.00;;;;5068781;28;20650;-70
2023/02/13 11:06:59;;;;;;;3.73;3.37;;;12.80;90.90;14.40;98671.00;;;;5069311;28;20199;-72
2023/02/13 11:09:50;;;;;;;3.27;2.70;;;13.10;90.20;13.70;98671.00;;;;5068059;28;20236;-72
2023/02/13 11:12:38;;;;;;;4.60;2.80;;;13.40;85.50;13.10;98655.00;;;;5063769;28;20251;-70
2023/02/13 11:15:30;;;;;;;5.13;3.27;;;13.10;85.60;14.40;98663.00;;;;5066975;28;20204;-70
2023/02/13 11:18:22;;;;;;;6.97;3.17;;;13.10;87.90;14.80;98660.00;;;;5071719;28;20230;-70
2023/02/13 11:21:20;;;;;;;2.93;2.40;;;13.30;84.80;13.80;98655.00;;;;5072383;28;20210;-71
2023/02/13 11:24:19;;;;;;;3.77;3.00;;;13.40;84.00;12.90;98646.00;;;;5072560;28;20227;-73
2023/02/13 11:27:12;;;;;;;5.47;3.40;;;13.10;83.30;14.00;98643.00;;;;5073146;28;20254;-71
2023/02/13 11:30:07;;;;;;;3.57;2.77;;;13.10;82.70;14.90;98660.00;;;;5072093;28;20719;-70
2023/02/13 11:33:00;;;;;;;4.87;3.00;;;13.30;82.40;15.00;98650.00;;;;5071192;28;20683;-70
2023/02/13 11:35:49;;;;;;;4.53;2.70;;;13.60;80.90;15.10;98640.00;;;;5074782;28;20219;-70
2023/02/13 11:38:38;;;;;;;3.53;3.10;;;13.80;81.30;15.00;98647.00;;;;5070798;28;20714;-70
2023/02/13 11:41:28;;;;;;;4.70;3.20;;;14.00;79.00;14.20;98644.00;;;;5075621;28;20200;-70
2023/02/13 11:44:25;;;;;;;3.20;2.90;;;14.00;77.80;14.60;98640.00;;;;5070633;28;20326;-70
2023/02/13 11:47:15;;;;;;;5.87;3.23;;;13.80;77.70;14.50;98635.00;;;;5068858;28;20211;-69
2023/02/13 11:50:06;;;;;;;3.67;2.63;;;13.70;77.80;15.20;98638.00;;;;5072778;28;20223;-69
2023/02/13 11:52:59;;;;;;;3.33;3.03;;;14.00;78.20;15.10;98623.00;;;;5071767;28;20234;-68
2023/02/13 11:56:06;;;;;;;3.70;3.33;;;14.10;77.10;16.30;98635.00;;;;5069552;28;20227;-68
2023/02/13 11:59:04;;;;;;;4.10;3.30;;;14.40;77.50;16.70;98633.00;;;;5070951;28;20228;-68
2023/02/13 12:02:14;;;;;;;3.67;2.63;;;14.80;75.50;16.40;98630.00;;;;5066668;28;20192;-69
2023/02/13 12:05:18;;;;;;;3.90;3.17;;;15.10;74.20;17.00;98633.00;;;;5065083;28;20196;-69
2023/02/13 12:08:10;;;;;;;4.30;3.43;;;15.30;73.60;16.50;98633.00;;;;5070740;28;20208;-69
2023/02/13 12:10:59;;;;;;;4.13;3.07;;;15.40;71.30;16.90;98621.00;;;;5065305;28;20196;-68
2023/02/13 12:13:50;;;;;;;5.33;3.83;;;15.40;72.00;17.00;98611.00;;;;5068516;28;20258;-69
2023/02/13 12:16:42;;;;;;;5.13;3.47;;;15.50;71.80;15.40;98609.00;;;;5070724;28;20196;-71
2023/02/13 12:19:40;;;;;;;4.63;3.23;;;15.30;71.00;15.40;98608.00;;;;5070284;28;20192;-71
2023/02/13 12:22:40;;;;;;;5.50;3.70;;;14.80;69.80;17.00;98608.00;;;;5061712;28;20632;-69
2023/02/13 12:25:54;;;;;;;5.30;3.53;;;15.10;72.60;15.50;98602.00;;;;5070150;28;20238;-69
2023/02/13 12:29:01;;;;;;;5.80;3.83;;;15.20;69.50;16.40;98606.00;;;;5069137;28;20212;-69
2023/02/13 12:32:09;;;;;;;6.73;4.10;;;15.40;69.40;15.70;98596.00;;;;5064253;28;20218;-68
2023/02/13 12:35:26;;;;;;;5.10;4.10;;;15.20;69.60;15.70;98595.00;;;;5073799;28;20999;-68
2023/02/13 12:38:33;;;;;;;4.60;4.20;;;14.80;69.60;15.50;98589.00;;;;5055700;28;20235;-70
2023/02/13 12:41:27;;;;;;;7.97;4.27;;;15.00;69.30;16.80;98590.00;;;;5070931;28;20663;-69
2023/02/13 12:44:44;;;;;;;8.70;4.60;;;15.00;68.90;17.50;98588.00;;;;5070555;28;20227;-69
2023/02/13 12:47:40;;;;;;;6.83;4.10;;;15.50;68.90;18.00;98584.00;;;;5070102;28;20200;-67
2023/02/13 12:50:49;;;;;;;7.07;4.60;;;16.00;68.10;18.80;98582.00;;;;5070638;28;20200;-68
2023/02/13 12:53:59;;;;;;;4.90;4.03;;;16.40;67.20;16.80;98568.00;;;;5070719;28;20234;-67
2023/02/13 12:57:36;;;;;;;4.17;3.40;;;16.50;64.10;16.50;98573.00;;;;5069080;28;20204;-69
2023/02/13 13:00:43;;;;;;;6.10;3.67;;;15.90;64.80;17.80;98572.00;;;;5069424;28;20211;-67
2023/02/13 13:03:49;;;;;;;5.27;4.07;;;16.20;65.50;16.70;98574.00;;;;5069849;28;20280;-71
2023/02/13 13:07:17;;;;;;;5.07;4.13;;;16.10;63.90;18.90;98577.00;;;;5070758;28;20188;-68
2023/02/13 13:10:41;;;;;;;6.73;3.87;;;16.30;64.80;16.70;98570.00;;;;5065582;28;20736;-67
2023/02/13 13:13:44;;;;;;;6.50;4.23;;;16.30;63.50;16.20;98561.00;;;;5069891;28;20242;-68
2023/02/13 13:16:46;;;;;;;5.07;3.97;;;15.90;64.60;17.00;98569.00;;;;5070080;28;20667;-68
2023/02/13 13:19:45;;;;;;;5.33;4.13;;;15.90;64.70;18.10;98575.00;;;;5069665;28;20203;-67
2023/02/13 13:22:40;;;;;;;7.93;7.13;;;16.10;64.50;17.80;98573.00;;;;5060838;28;20258;-67
2023/02/13 13:25:36;;;;;;;6.00;4.37;;;16.60;63.40;15.40;98549.00;;;;5070450;28;20697;-71
2023/02/13 13:28:31;;;;;;;5.10;4.20;;;15.90;63.40;18.40;98572.00;;;;5069535;28;20249;-68
2023/02/13 13:31:22;;;;;;;5.43;3.97;;;16.30;64.10;18.50;98574.00;;;;5070295;28;20204;-68
2023/02/13 13:34:20;;;;;;;4.87;3.90;;;17.00;63.00;18.60;98573.00;;;;5072745;28;20223;-67
2023/02/13 13:37:16;;;;;;;4.87;3.90;;;17.50;60.90;16.80;98563.00;;;;5061894;28;20667;-70
2023/02/13 13:40:26;;;;;;;6.33;4.43;;;17.40;60.00;16.00;98562.00;;;;5068800;28;20230;-69
2023/02/13 13:43:28;;;;;;;6.10;4.20;;;17.00;59.60;18.00;98576.00;;;;5069401;28;20219;-68